Search for airport 
image banner adimage banner adimage banner ad
image banner ad

CA06 - Bates Field

Located in Alturas, United States

ICAO - CA06, IATA -

Data provided by Airmate  

General information

Coordinates: N41°25'4" W120°34'9"
Elevation is 4400 feet MSL.
Magnetic variation is 16° East
View others Airports in California

Operational data

Special qualification required
Current time UTC:
Current local time:
Weather at : KAAT - Alturas Muni ( 7 km )
METAR: KAAT 150955Z AUTO 00000KT 10SM CLR 05/02 A3010 RMK AO2 SLP164 T00500017
View NOTAMs / SUP AIP / TFR affecting this airport [VIEW]
Communications frequencies: [VIEW]

Runways:

RWY identifierQFULength (ft)Width (ft)SurfaceLDA (ft)
16220080GRASS
34220080GRASS

Airport contact information

Address: Alturas United States

Satellite view of CA06